createdAt,value
2022-09-14T00:01:24.653Z,7.85
2022-09-14T00:03:53.218Z,8.80
2022-09-14T00:06:21.273Z,9.30
2022-09-14T00:08:51.418Z,11.40
2022-09-14T00:11:18.623Z,11.23
2022-09-14T00:13:46.668Z,14.02
2022-09-14T00:16:25.605Z,13.85
2022-09-14T00:18:53.790Z,13.82
2022-09-14T00:21:21.361Z,12.80
2022-09-14T00:23:48.629Z,12.70
2022-09-14T00:26:18.265Z,12.18
2022-09-14T00:28:47.851Z,11.32
2022-09-14T00:31:15.330Z,11.90
2022-09-14T00:33:43.407Z,11.43
2022-09-14T00:36:15.424Z,11.27
2022-09-14T00:38:42.385Z,10.45
2022-09-14T00:41:13.531Z,10.30
2022-09-14T00:44:03.010Z,11.00
2022-09-14T00:50:56.957Z,10.63
2022-09-14T00:53:23.885Z,9.75
2022-09-14T00:55:54.030Z,11.15
2022-09-14T00:58:20.942Z,9.50
2022-09-14T01:00:47.437Z,9.70
2022-09-14T01:03:13.983Z,10.70
2022-09-14T01:06:02.906Z,10.10
2022-09-14T01:08:39.573Z,9.55
2022-09-14T01:11:26.838Z,9.32
2022-09-14T01:14:00.475Z,9.25
2022-09-14T01:16:33.655Z,8.70
2022-09-14T01:19:05.312Z,9.48
2022-09-14T01:21:35.862Z,8.82
2022-09-14T01:24:30.280Z,9.73
2022-09-14T01:27:15.448Z,9.80
2022-09-14T01:29:53.042Z,8.70
2022-09-14T01:32:36.016Z,9.02
2022-09-14T01:35:16.129Z,8.63
2022-09-14T01:38:06.162Z,9.13
2022-09-14T01:40:46.006Z,8.88
2022-09-14T01:43:27.389Z,8.57
2022-09-14T01:46:04.731Z,9.43
2022-09-14T01:48:37.560Z,10.15
2022-09-14T01:51:12.701Z,9.18
2022-09-14T01:53:45.879Z,9.57
2022-09-14T01:56:32.908Z,9.50
2022-09-14T01:59:15.704Z,9.43
2022-09-14T02:02:12.931Z,9.63
2022-09-14T02:04:54.393Z,9.85
2022-09-14T02:07:21.079Z,10.05
2022-09-14T02:09:49.249Z,9.57
2022-09-14T02:12:16.573Z,9.00
2022-09-14T02:14:45.083Z,8.93
2022-09-14T02:17:12.857Z,9.40
2022-09-14T02:19:53.201Z,9.45
2022-09-14T02:22:19.746Z,10.10
2022-09-14T02:24:46.842Z,10.25
2022-09-14T02:27:13.367Z,10.35
2022-09-14T02:29:39.845Z,9.55
2022-09-14T02:32:21.281Z,10.05
2022-09-14T02:35:17.096Z,10.18
2022-09-14T02:37:57.972Z,9.73
2022-09-14T02:40:37.235Z,9.73
2022-09-14T02:43:18.745Z,9.73
2022-09-14T02:45:58.842Z,9.98
2022-09-14T02:48:50.270Z,9.52
2022-09-14T02:51:38.277Z,9.93
2022-09-14T02:54:50.545Z,10.13
2022-09-14T02:57:17.520Z,9.95
2022-09-14T02:59:45.058Z,10.75
2022-09-14T03:02:11.600Z,10.82
2022-09-14T03:04:38.229Z,10.23
2022-09-14T03:07:04.712Z,11.10
2022-09-14T03:09:31.220Z,10.55
2022-09-14T03:11:58.158Z,10.73
2022-09-14T03:14:24.715Z,10.88
2022-09-14T03:16:51.375Z,11.38
2022-09-14T03:19:17.886Z,11.70
2022-09-14T03:21:44.552Z,11.35
2022-09-14T03:24:11.238Z,11.35
2022-09-14T03:26:38.676Z,11.13
2022-09-14T03:29:06.319Z,12.48
2022-09-14T03:31:34.032Z,12.02
2022-09-14T03:34:02.296Z,11.60
2022-09-14T03:36:30.942Z,11.38
2022-09-14T03:38:59.077Z,11.65
2022-09-14T03:41:26.132Z,12.77
2022-09-14T03:43:52.969Z,11.98
2022-09-14T03:46:21.503Z,12.73
2022-09-14T03:48:49.079Z,13.93
2022-09-14T03:51:16.346Z,13.32
2022-09-14T03:53:45.189Z,13.25
2022-09-14T03:56:15.467Z,13.75
2022-09-14T03:58:43.514Z,14.45
2022-09-14T04:01:14.745Z,15.02
2022-09-14T04:03:41.755Z,15.38
2022-09-14T04:06:09.297Z,14.95
2022-09-14T04:08:38.382Z,13.75
2022-09-14T04:11:16.020Z,14.27
2022-09-14T04:13:43.360Z,14.98
2022-09-14T04:16:10.387Z,15.50
2022-09-14T04:18:37.209Z,15.50
2022-09-14T04:21:13.005Z,15.05
2022-09-14T04:23:57.012Z,15.10
2022-09-14T04:28:55.680Z,15.45
2022-09-14T04:31:22.801Z,13.80
2022-09-14T04:33:50.768Z,15.27
2022-09-14T04:36:20.386Z,14.48
2022-09-14T04:38:47.109Z,14.68
2022-09-14T04:41:16.427Z,15.10
2022-09-14T04:43:44.606Z,13.88
2022-09-14T04:46:13.727Z,12.50
2022-09-14T04:48:40.912Z,12.45
2022-09-14T04:51:19.120Z,13.07
2022-09-14T04:53:50.312Z,12.27
2022-09-14T04:56:18.225Z,13.90
2022-09-14T04:58:51.456Z,13.07
2022-09-14T05:01:20.528Z,13.38
2022-09-14T05:03:47.335Z,14.45
2022-09-14T05:06:16.497Z,15.00
2022-09-14T05:08:43.758Z,14.52
2022-09-14T05:11:13.972Z,14.32
2022-09-14T05:13:40.751Z,15.60
2022-09-14T05:16:20.852Z,15.18
2022-09-14T05:18:47.651Z,14.82
2022-09-14T05:21:16.861Z,16.45
2022-09-14T05:23:43.797Z,15.93
2022-09-14T05:26:10.696Z,16.60
2022-09-14T05:28:37.838Z,15.70
2022-09-14T05:31:09.623Z,16.63
2022-09-14T05:33:36.906Z,16.60
2022-09-14T05:36:06.253Z,16.60
2022-09-14T05:38:34.272Z,16.15
2022-09-14T05:41:01.511Z,16.33
2022-09-14T05:43:29.192Z,15.77
2022-09-14T05:45:56.028Z,14.73
2022-09-14T05:48:22.555Z,15.13
2022-09-14T05:50:49.042Z,14.77
2022-09-14T05:53:15.694Z,15.27
2022-09-14T05:55:42.340Z,14.98
2022-09-14T05:58:08.823Z,15.88
2022-09-14T06:00:35.572Z,16.60
2022-09-14T06:03:02.176Z,15.88
2022-09-14T06:05:28.772Z,15.73
2022-09-14T06:07:55.320Z,15.93
2022-09-14T06:10:22.157Z,15.30
2022-09-14T06:12:53.454Z,13.63
2022-09-14T06:15:24.643Z,12.93
2022-09-14T06:17:51.345Z,11.43
2022-09-14T06:20:18.866Z,11.52
2022-09-14T06:22:45.434Z,10.02
2022-09-14T06:25:11.975Z,10.85
2022-09-14T06:27:38.524Z,10.15
2022-09-14T06:30:05.894Z,9.57
2022-09-14T06:32:32.556Z,9.93
2022-09-14T06:34:59.051Z,9.95
2022-09-14T06:37:25.707Z,8.95
2022-09-14T06:39:52.307Z,8.40
2022-09-14T06:42:19.167Z,8.57
2022-09-14T06:44:47.390Z,9.40
2022-09-14T06:47:13.899Z,8.50
2022-09-14T06:49:40.467Z,8.27
2022-09-14T06:52:07.231Z,8.38
2022-09-14T06:54:33.724Z,8.27
2022-09-14T06:57:00.201Z,7.53
2022-09-14T06:59:26.799Z,8.18
2022-09-14T07:01:53.321Z,8.45
2022-09-14T07:04:20.006Z,8.48
2022-09-14T07:06:49.410Z,8.68
2022-09-14T07:09:17.390Z,8.07
2022-09-14T07:11:44.350Z,8.23
2022-09-14T07:14:11.913Z,8.52
2022-09-14T07:16:39.886Z,7.65
2022-09-14T07:19:10.378Z,7.60
2022-09-14T07:21:37.095Z,7.70
2022-09-14T07:24:04.013Z,7.53
2022-09-14T07:26:35.272Z,7.45
2022-09-14T07:29:06.143Z,7.72
2022-09-14T07:31:53.964Z,7.22
2022-09-14T07:34:20.886Z,7.40
2022-09-14T07:36:47.477Z,7.05
2022-09-14T07:39:16.819Z,7.22
2022-09-14T07:41:43.642Z,6.97
2022-09-14T07:44:15.127Z,6.95
2022-09-14T07:46:43.912Z,6.72
2022-09-14T07:49:12.003Z,6.50
2022-09-14T07:51:39.487Z,6.60
2022-09-14T07:54:07.763Z,6.00
2022-09-14T07:56:35.185Z,6.80
2022-09-14T07:59:30.823Z,6.10
2022-09-14T08:01:50.034Z,5.40
2022-09-14T08:04:16.929Z,5.57
2022-09-14T08:06:43.623Z,5.90
2022-09-14T08:09:10.239Z,6.20
2022-09-14T08:11:37.110Z,5.40
2022-09-14T08:14:10.483Z,5.15
2022-09-14T08:16:41.414Z,5.57
2022-09-14T08:19:12.934Z,5.25
2022-09-14T08:21:44.109Z,5.95
2022-09-14T08:24:14.535Z,6.00
2022-09-14T08:26:41.081Z,5.45
2022-09-14T08:29:08.142Z,4.90
2022-09-14T08:31:42.604Z,5.15
2022-09-14T08:34:10.205Z,5.13
2022-09-14T08:36:40.324Z,4.90
2022-09-14T08:39:11.685Z,5.47
2022-09-14T08:41:46.315Z,4.65
2022-09-14T08:44:27.793Z,4.60
2022-09-14T08:47:00.440Z,4.88
2022-09-14T08:49:47.084Z,4.82
2022-09-14T08:52:23.286Z,4.30
2022-09-14T08:54:54.196Z,4.47
2022-09-14T08:57:49.494Z,4.15
2022-09-14T09:00:21.693Z,4.72
2022-09-14T09:03:01.685Z,4.47
2022-09-14T09:05:38.596Z,4.30
2022-09-14T09:08:23.118Z,4.60
2022-09-14T09:10:53.822Z,4.60
2022-09-14T09:13:25.746Z,4.97
2022-09-14T09:15:57.300Z,4.82
2022-09-14T09:18:41.233Z,4.70
2022-09-14T09:21:33.638Z,4.40
2022-09-14T09:24:42.345Z,4.18
2022-09-14T09:27:13.612Z,4.05
2022-09-14T09:29:40.484Z,4.03
2022-09-14T09:32:16.545Z,3.78
2022-09-14T09:34:43.116Z,4.03
2022-09-14T09:37:18.117Z,4.00
2022-09-14T09:39:45.006Z,3.45
2022-09-14T09:42:20.625Z,3.50
2022-09-14T09:47:35.475Z,3.97
2022-09-14T09:50:07.202Z,4.18
2022-09-14T09:52:34.774Z,3.75
2022-09-14T09:55:04.290Z,4.00
2022-09-14T09:57:36.535Z,3.92
2022-09-14T10:00:13.836Z,3.70
2022-09-14T10:02:41.326Z,3.90
2022-09-14T10:05:13.790Z,3.90
2022-09-14T10:08:01.324Z,3.95
2022-09-14T10:10:39.284Z,4.00
2022-09-14T10:13:16.204Z,4.20
2022-09-14T10:15:43.552Z,3.88
2022-09-14T10:18:17.457Z,4.03
2022-09-14T10:20:53.193Z,4.00
2022-09-14T10:23:19.770Z,3.90
2022-09-14T10:25:48.737Z,4.20
2022-09-14T10:28:25.962Z,3.60
2022-09-14T10:31:00.682Z,4.00
2022-09-14T10:33:27.493Z,4.17
2022-09-14T10:35:56.948Z,4.00
2022-09-14T10:38:39.962Z,4.22
2022-09-14T10:41:15.216Z,4.18
2022-09-14T10:44:02.599Z,4.40
2022-09-14T10:46:55.356Z,3.85
2022-09-14T10:49:43.463Z,4.05
2022-09-14T10:52:23.165Z,4.10
2022-09-14T10:55:32.149Z,3.80
2022-09-14T10:58:28.752Z,3.80
2022-09-14T11:04:01.846Z,4.03
2022-09-14T11:06:53.359Z,4.05
2022-09-14T11:09:25.307Z,4.20
2022-09-14T11:12:13.180Z,4.47
2022-09-14T11:15:20.394Z,4.40
2022-09-14T11:18:04.721Z,4.28
2022-09-14T11:20:54.855Z,4.85
2022-09-14T11:23:32.196Z,4.32
2022-09-14T11:26:22.419Z,4.05
2022-09-14T11:29:13.332Z,4.18
2022-09-14T11:32:04.188Z,4.30
2022-09-14T11:34:59.976Z,4.63
2022-09-14T11:37:40.222Z,4.10
2022-09-14T11:40:33.480Z,4.30
2022-09-14T11:43:03.760Z,4.47
2022-09-14T11:45:58.737Z,4.03
2022-09-14T11:48:43.349Z,4.35
2022-09-14T11:51:46.308Z,4.77
2022-09-14T11:54:18.499Z,5.07
2022-09-14T11:56:49.922Z,4.88
2022-09-14T11:59:36.454Z,5.20
2022-09-14T12:02:27.704Z,5.32
2022-09-14T12:05:10.324Z,5.65
2022-09-14T12:07:39.650Z,5.35
2022-09-14T12:10:51.976Z,5.47
2022-09-14T12:13:21.126Z,5.70
2022-09-14T12:15:47.733Z,5.50
2022-09-14T12:18:23.962Z,5.03
2022-09-14T12:21:02.473Z,5.25
2022-09-14T12:23:37.686Z,5.65
2022-09-14T12:26:10.647Z,6.15
2022-09-14T12:28:40.124Z,5.80
2022-09-14T12:31:30.351Z,5.47
2022-09-14T12:34:14.984Z,5.25
2022-09-14T12:36:41.794Z,5.15
2022-09-14T12:39:25.465Z,4.75
2022-09-14T12:41:51.933Z,4.80
2022-09-14T12:44:36.614Z,4.72
2022-09-14T12:47:24.775Z,4.93
2022-09-14T12:49:57.768Z,5.07
2022-09-14T12:52:32.666Z,5.43
2022-09-14T12:55:25.537Z,5.10
2022-09-14T12:58:02.696Z,4.95
2022-09-14T13:00:35.547Z,5.20
2022-09-14T13:03:36.586Z,5.72
2022-09-14T13:06:03.196Z,5.25
2022-09-14T13:08:29.770Z,5.57
2022-09-14T13:10:56.299Z,4.85
2022-09-14T13:13:28.122Z,5.53
2022-09-14T13:15:58.946Z,5.55
2022-09-14T13:18:33.412Z,6.03
2022-09-14T13:21:16.623Z,5.32
2022-09-14T13:23:43.488Z,5.47
2022-09-14T13:26:19.514Z,5.88
2022-09-14T13:28:47.965Z,6.28
2022-09-14T13:31:35.591Z,5.80
2022-09-14T13:34:03.142Z,5.88
2022-09-14T13:36:34.339Z,7.22
2022-09-14T13:39:03.343Z,7.53
2022-09-14T13:41:31.299Z,7.30
2022-09-14T13:43:59.756Z,7.45
2022-09-14T13:46:27.630Z,7.80
2022-09-14T13:48:55.418Z,7.82
2022-09-14T13:51:25.910Z,6.95
2022-09-14T13:53:55.383Z,6.47
2022-09-14T13:56:35.280Z,6.97
2022-09-14T13:59:24.070Z,6.68
2022-09-14T14:01:56.123Z,6.20
2022-09-14T14:04:35.757Z,6.70
2022-09-14T14:07:21.205Z,6.30
2022-09-14T14:09:55.312Z,6.05
2022-09-14T14:12:30.515Z,5.45
2022-09-14T14:15:12.280Z,5.40
2022-09-14T14:17:40.676Z,5.80
2022-09-14T14:20:31.266Z,5.18
2022-09-14T14:23:10.528Z,5.80
2022-09-14T14:25:47.473Z,5.90
2022-09-14T14:28:22.408Z,7.30
2022-09-14T14:30:49.536Z,6.30
2022-09-14T14:33:19.191Z,7.90
2022-09-14T14:35:48.722Z,7.43
2022-09-14T14:38:16.229Z,6.80
2022-09-14T14:40:43.145Z,7.43
2022-09-14T14:43:19.936Z,7.07
2022-09-14T14:45:46.997Z,8.25
2022-09-14T14:48:13.659Z,7.47
2022-09-14T14:50:40.375Z,8.10
2022-09-14T14:53:06.931Z,9.93
2022-09-14T14:55:35.924Z,8.40
2022-09-14T14:58:07.066Z,7.57
2022-09-14T15:00:36.367Z,8.07
2022-09-14T15:03:03.189Z,8.02
2022-09-14T15:05:30.012Z,7.95
2022-09-14T15:07:56.760Z,7.95
2022-09-14T15:10:25.815Z,7.88
2022-09-14T15:12:52.557Z,7.65
2022-09-14T15:15:24.967Z,8.20
2022-09-14T15:17:52.281Z,8.05
2022-09-14T15:20:20.010Z,7.55
2022-09-14T15:22:50.227Z,7.82
2022-09-14T15:25:18.915Z,8.52
2022-09-14T15:27:46.210Z,8.90
2022-09-14T15:30:13.461Z,7.93
2022-09-14T15:32:40.486Z,8.65
2022-09-14T15:35:10.757Z,7.78
2022-09-14T15:37:37.533Z,7.60
2022-09-14T15:40:05.103Z,7.72
2022-09-14T15:42:31.769Z,8.52
2022-09-14T15:44:58.242Z,8.00
2022-09-14T15:47:24.740Z,8.10
2022-09-14T15:49:52.847Z,7.55
2022-09-14T15:52:19.545Z,8.60
2022-09-14T15:54:46.179Z,8.30
2022-09-14T15:57:13.416Z,8.13
2022-09-14T15:59:40.185Z,8.05
2022-09-14T16:02:07.201Z,8.48
2022-09-14T16:04:37.971Z,8.77
2022-09-14T16:07:09.867Z,8.63
2022-09-14T16:09:41.237Z,8.55
2022-09-14T16:12:09.609Z,8.38
2022-09-14T16:14:36.462Z,8.63
2022-09-14T16:17:03.053Z,9.23
2022-09-14T16:19:30.033Z,8.32
2022-09-14T16:21:57.006Z,8.95
2022-09-14T16:24:24.921Z,9.13
2022-09-14T16:26:52.331Z,9.30
2022-09-14T16:29:20.658Z,8.85
2022-09-14T16:31:48.842Z,8.30
2022-09-14T16:34:22.387Z,9.20
2022-09-14T16:36:49.457Z,8.50
2022-09-14T16:39:18.926Z,8.80
2022-09-14T16:41:46.125Z,8.60
2022-09-14T16:44:15.746Z,8.80
2022-09-14T16:46:42.357Z,9.82
2022-09-14T16:49:09.540Z,9.15
2022-09-14T16:51:36.209Z,9.27
2022-09-14T16:54:02.863Z,8.88
2022-09-14T16:56:32.299Z,8.40
2022-09-14T16:59:01.138Z,8.55
2022-09-14T17:01:33.351Z,8.43
2022-09-14T17:04:05.695Z,8.50
2022-09-14T17:06:33.107Z,9.50
2022-09-14T17:09:02.762Z,9.00
2022-09-14T17:11:31.770Z,9.85
2022-09-14T17:13:58.396Z,8.98
2022-09-14T17:16:26.443Z,9.10
2022-09-14T17:18:54.917Z,9.55
2022-09-14T17:21:25.720Z,9.77
2022-09-14T17:23:52.245Z,9.90
2022-09-14T17:26:20.578Z,10.23
2022-09-14T17:28:53.467Z,9.85
2022-09-14T17:31:23.187Z,10.25
2022-09-14T17:33:50.148Z,10.23
2022-09-14T17:36:16.966Z,9.93
2022-09-14T17:38:44.845Z,10.32
2022-09-14T17:41:17.221Z,9.55
2022-09-14T17:43:44.024Z,10.23
2022-09-14T17:46:14.871Z,9.20
2022-09-14T17:48:42.689Z,10.13
2022-09-14T17:51:22.685Z,9.05
2022-09-14T17:53:52.761Z,9.35
2022-09-14T17:56:21.852Z,8.98
2022-09-14T17:58:58.669Z,9.85
2022-09-14T18:01:25.888Z,10.07
2022-09-14T18:03:55.610Z,9.32
2022-09-14T18:06:24.104Z,10.38
2022-09-14T18:08:55.569Z,9.80
2022-09-14T18:11:23.386Z,10.13
2022-09-14T18:13:50.450Z,10.07
2022-09-14T18:16:19.812Z,10.07
2022-09-14T18:18:46.702Z,9.90
2022-09-14T18:21:14.937Z,9.73
2022-09-14T18:23:41.443Z,9.95
2022-09-14T18:26:08.120Z,11.05
2022-09-14T18:28:36.005Z,10.05
2022-09-14T18:31:08.244Z,10.85
2022-09-14T18:33:35.914Z,10.15
2022-09-14T18:36:03.279Z,10.45
2022-09-14T18:38:30.095Z,10.45
2022-09-14T18:41:03.647Z,10.80
2022-09-14T18:43:30.154Z,10.43
2022-09-14T18:45:56.681Z,10.82
2022-09-14T18:48:23.158Z,11.30
2022-09-14T18:50:49.685Z,11.60
2022-09-14T18:53:16.188Z,12.02
2022-09-14T18:55:42.640Z,10.50
2022-09-14T18:58:09.525Z,11.93
2022-09-14T19:00:37.435Z,10.25
2022-09-14T19:03:04.747Z,10.73
2022-09-14T19:05:31.882Z,10.32
2022-09-14T19:07:58.648Z,10.63
2022-09-14T19:10:26.045Z,10.85
2022-09-14T19:12:52.554Z,10.73
2022-09-14T19:15:20.026Z,11.30
2022-09-14T19:17:49.198Z,11.50
2022-09-14T19:20:15.779Z,11.40
2022-09-14T19:22:42.394Z,11.80
2022-09-14T19:25:09.027Z,12.15
2022-09-14T19:27:35.661Z,12.10
2022-09-14T19:30:02.224Z,12.13
2022-09-14T19:32:28.729Z,12.20
2022-09-14T19:34:55.255Z,10.82
2022-09-14T19:37:22.335Z,12.20
2022-09-14T19:39:48.988Z,12.65
2022-09-14T19:42:15.571Z,11.80
2022-09-14T19:44:42.024Z,13.18
2022-09-14T19:47:08.595Z,13.13
2022-09-14T19:49:35.144Z,13.07
2022-09-14T19:52:01.912Z,12.77
2022-09-14T19:54:28.587Z,13.55
2022-09-14T19:56:55.104Z,13.63
2022-09-14T19:59:21.976Z,13.65
2022-09-14T20:01:48.569Z,13.70
2022-09-14T20:04:18.222Z,14.13
2022-09-14T20:06:47.056Z,12.20
2022-09-14T20:09:16.867Z,12.65
2022-09-14T20:11:45.539Z,12.95
2022-09-14T20:14:14.158Z,11.93
2022-09-14T20:16:45.908Z,11.80
2022-09-14T20:19:15.123Z,11.75
2022-09-14T20:21:43.495Z,11.80
2022-09-14T20:24:36.114Z,12.57
2022-09-14T20:27:02.848Z,11.90
2022-09-14T20:29:31.298Z,12.55
2022-09-14T20:31:58.949Z,12.05
2022-09-14T20:34:25.926Z,12.38
2022-09-14T20:36:53.382Z,12.90
2022-09-14T20:39:22.172Z,12.40
2022-09-14T20:41:49.225Z,12.70
2022-09-14T20:44:16.993Z,13.00
2022-09-14T20:46:44.575Z,13.80
2022-09-14T20:49:15.667Z,12.98
2022-09-14T20:51:42.721Z,12.35
2022-09-14T20:54:12.738Z,12.93
2022-09-14T20:56:40.090Z,12.85
2022-09-14T20:59:09.561Z,13.85
2022-09-14T21:01:37.784Z,12.68
2022-09-14T21:04:07.012Z,13.95
2022-09-14T21:06:36.606Z,15.23
2022-09-14T21:09:04.512Z,14.70
2022-09-14T21:11:31.301Z,13.73
2022-09-14T21:13:58.046Z,13.98
2022-09-14T21:16:30.486Z,18.08
2022-09-14T21:19:00.217Z,16.17
2022-09-14T21:21:27.635Z,17.42
2022-09-14T21:23:56.014Z,16.17
2022-09-14T21:26:23.911Z,16.65
2022-09-14T21:28:58.352Z,15.18
2022-09-14T21:31:26.683Z,15.88
2022-09-14T21:33:55.408Z,15.32
2022-09-14T21:36:25.961Z,15.40
2022-09-14T21:38:55.622Z,16.17
2022-09-14T21:41:25.364Z,15.55
2022-09-14T21:43:52.471Z,15.93
2022-09-14T21:46:19.827Z,17.30
2022-09-14T21:48:46.460Z,17.23
2022-09-14T21:51:17.137Z,15.05
2022-09-14T21:53:46.265Z,15.13
2022-09-14T21:56:13.232Z,14.82
2022-09-14T21:58:39.777Z,15.52
2022-09-14T22:01:06.383Z,14.75
2022-09-14T22:03:32.893Z,14.52
2022-09-14T22:06:11.683Z,16.58
2022-09-14T22:08:40.368Z,15.27
2022-09-14T22:11:08.315Z,16.33
2022-09-14T22:13:34.982Z,15.90
2022-09-14T22:16:09.760Z,16.98
2022-09-14T22:18:37.597Z,17.95
2022-09-14T22:21:05.061Z,17.77
2022-09-14T22:23:32.577Z,19.20
2022-09-14T22:25:59.540Z,18.35
2022-09-14T22:28:26.090Z,18.05
2022-09-14T22:30:58.044Z,18.02
2022-09-14T22:33:25.651Z,18.70
2022-09-14T22:35:58.175Z,17.35
2022-09-14T22:38:27.070Z,18.85
2022-09-14T22:41:10.969Z,19.77
2022-09-14T22:43:38.246Z,18.80
2022-09-14T22:46:06.013Z,19.75
2022-09-14T22:48:33.459Z,19.15
2022-09-14T22:51:00.914Z,20.38
2022-09-14T22:53:28.441Z,19.85
2022-09-14T22:55:55.549Z,20.30
2022-09-14T22:58:25.892Z,19.92
2022-09-14T23:00:52.938Z,19.30
2022-09-14T23:03:19.628Z,17.58
2022-09-14T23:05:55.691Z,19.02
2022-09-14T23:08:23.444Z,18.88
2022-09-14T23:10:50.052Z,18.02
2022-09-14T23:13:17.159Z,18.73
2022-09-14T23:15:43.989Z,19.13
2022-09-14T23:18:11.152Z,17.48
2022-09-14T23:20:39.490Z,17.55
2022-09-14T23:23:06.757Z,17.42
2022-09-14T23:25:35.394Z,17.35
2022-09-14T23:28:03.256Z,18.00
2022-09-14T23:30:30.249Z,18.13
2022-09-14T23:32:58.275Z,18.65
2022-09-14T23:35:25.685Z,19.30
2022-09-14T23:37:52.214Z,17.67
2022-09-14T23:40:19.759Z,17.23
2022-09-14T23:42:47.453Z,17.13
2022-09-14T23:45:15.032Z,17.70
2022-09-14T23:47:41.818Z,16.15
2022-09-14T23:50:08.997Z,16.63
2022-09-14T23:52:35.551Z,17.50
2022-09-14T23:55:02.197Z,16.00
2022-09-14T23:57:28.755Z,16.30
2022-09-14T23:59:55.305Z,15.40
